createdAt,value
2018-04-06T00:01:48.399Z,77.63
2018-04-06T00:04:15.890Z,76.69
2018-04-06T00:06:43.346Z,77.08
2018-04-06T00:09:10.736Z,77.16
2018-04-06T00:11:38.123Z,77.24
2018-04-06T00:14:05.627Z,77.39
2018-04-06T00:16:33.019Z,77.84
2018-04-06T00:19:00.418Z,77.35
2018-04-06T00:21:27.814Z,76.58
2018-04-06T00:23:55.202Z,77.12
2018-04-06T00:26:22.598Z,78.02
2018-04-06T00:28:49.986Z,78.84
2018-04-06T00:31:18.126Z,78.16
2018-04-06T00:33:45.515Z,77.87
2018-04-06T00:36:12.912Z,78.33
2018-04-06T00:38:40.299Z,78.71
2018-04-06T00:41:07.729Z,78.50
2018-04-06T00:43:35.187Z,78.38
2018-04-06T00:46:02.582Z,78.50
2018-04-06T00:50:56.706Z,78.39
2018-04-06T00:53:36.195Z,77.84
2018-04-06T00:56:03.632Z,77.83
2018-04-06T00:58:31.964Z,77.96
2018-04-06T01:00:59.346Z,78.07
2018-04-06T01:03:26.734Z,78.69
2018-04-06T01:05:54.131Z,78.71
2018-04-06T01:08:21.631Z,78.88
2018-04-06T01:10:49.027Z,78.92
2018-04-06T01:13:16.426Z,79.14
2018-04-06T01:15:43.813Z,78.72
2018-04-06T01:18:11.257Z,78.63
2018-04-06T01:20:38.643Z,78.37
2018-04-06T01:23:06.070Z,77.96
2018-04-06T01:25:33.459Z,78.78
2018-04-06T01:28:00.855Z,78.89
2018-04-06T01:30:28.238Z,79.55
2018-04-06T01:32:55.631Z,79.23
2018-04-06T01:35:23.019Z,78.87
2018-04-06T01:37:50.416Z,78.64
2018-04-06T01:40:17.794Z,78.65
2018-04-06T01:42:45.197Z,78.82
2018-04-06T01:45:12.670Z,78.58
2018-04-06T01:47:40.143Z,78.38
2018-04-06T01:50:07.587Z,78.35
2018-04-06T01:52:35.053Z,78.75
2018-04-06T01:55:02.434Z,78.69
2018-04-06T01:57:29.834Z,77.97
2018-04-06T01:59:57.267Z,77.83
2018-04-06T02:02:24.614Z,77.25
2018-04-06T02:04:51.999Z,76.74
2018-04-06T02:07:19.395Z,76.74
2018-04-06T02:09:46.807Z,77.42
2018-04-06T02:12:14.198Z,76.78
2018-04-06T02:14:41.595Z,76.19
2018-04-06T02:17:09.615Z,75.55
2018-04-06T02:19:37.062Z,75.27
2018-04-06T02:22:04.466Z,75.02
2018-04-06T02:24:31.905Z,74.69
2018-04-06T02:26:59.275Z,75.04
2018-04-06T02:29:26.671Z,76.25
2018-04-06T02:31:54.160Z,75.78
2018-04-06T02:34:21.559Z,77.10
2018-04-06T02:36:48.942Z,76.85
2018-04-06T02:39:17.183Z,77.16
2018-04-06T02:41:44.598Z,77.66
2018-04-06T02:44:11.982Z,77.63
2018-04-06T02:46:39.376Z,77.23
2018-04-06T02:49:06.790Z,76.45
2018-04-06T02:51:34.161Z,75.97
2018-04-06T02:54:01.568Z,75.52
2018-04-06T02:56:28.943Z,75.17
2018-04-06T02:58:56.338Z,74.86
2018-04-06T03:01:23.724Z,74.72
2018-04-06T03:03:51.124Z,74.63
2018-04-06T03:06:18.514Z,74.92
2018-04-06T03:08:45.914Z,74.84
2018-04-06T03:11:13.306Z,75.27
2018-04-06T03:13:40.703Z,75.48
2018-04-06T03:16:08.091Z,76.01
2018-04-06T03:18:35.486Z,76.25
2018-04-06T03:21:02.978Z,76.34
2018-04-06T03:23:30.370Z,76.12
2018-04-06T03:25:57.759Z,76.38
2018-04-06T03:28:25.155Z,76.51
2018-04-06T03:30:52.611Z,76.62
2018-04-06T03:33:19.991Z,76.86
2018-04-06T03:35:47.391Z,76.82
2018-04-06T03:38:14.775Z,76.81
2018-04-06T03:40:42.158Z,76.31
2018-04-06T03:43:10.162Z,76.20
2018-04-06T03:45:37.560Z,76.12
2018-04-06T03:48:04.956Z,75.99
2018-04-06T03:50:32.351Z,75.83
2018-04-06T03:52:59.738Z,75.87
2018-04-06T03:55:27.134Z,75.69
2018-04-06T03:57:54.614Z,75.47
2018-04-06T04:00:22.014Z,75.56
2018-04-06T04:02:49.427Z,75.47
2018-04-06T04:05:17.723Z,75.38
2018-04-06T04:07:45.106Z,75.26
2018-04-06T04:10:12.494Z,75.28
2018-04-06T04:12:39.898Z,75.00
2018-04-06T04:15:07.280Z,74.84
2018-04-06T04:17:34.666Z,74.66
2018-04-06T04:20:02.072Z,74.46
2018-04-06T04:22:29.459Z,74.42
2018-04-06T04:24:56.867Z,74.22
2018-04-06T04:27:24.243Z,74.33
2018-04-06T04:29:51.710Z,74.17
2018-04-06T04:32:19.166Z,74.44
2018-04-06T04:34:46.574Z,74.58
2018-04-06T04:37:13.961Z,74.75
2018-04-06T04:39:41.342Z,74.72
2018-04-06T04:42:08.744Z,74.73
2018-04-06T04:44:36.130Z,74.71
2018-04-06T04:47:03.590Z,74.75
2018-04-06T04:49:31.047Z,74.92
2018-04-06T04:51:58.502Z,74.84
2018-04-06T04:54:25.958Z,74.96
2018-04-06T04:56:53.415Z,75.89
2018-04-06T04:59:20.822Z,76.13
2018-04-06T05:01:48.331Z,76.19
2018-04-06T05:04:15.710Z,76.15
2018-04-06T05:06:43.114Z,76.02
2018-04-06T05:09:10.587Z,75.93
2018-04-06T05:11:37.978Z,75.84
2018-04-06T05:14:05.377Z,75.97
2018-04-06T05:16:32.766Z,75.93
2018-04-06T05:19:00.152Z,75.69
2018-04-06T05:21:27.568Z,75.19
2018-04-06T05:23:55.028Z,74.11
2018-04-06T05:26:22.426Z,72.94
2018-04-06T05:28:49.826Z,68.05
2018-04-06T05:31:17.219Z,66.61
2018-04-06T05:33:44.638Z,64.43
2018-04-06T05:36:12.039Z,59.72
2018-04-06T05:38:39.534Z,54.63
2018-04-06T05:41:06.850Z,50.57
2018-04-06T05:43:34.250Z,47.99
2018-04-06T05:46:01.639Z,48.96
2018-04-06T05:48:29.036Z,43.08
2018-04-06T05:50:56.422Z,39.68
2018-04-06T05:53:23.878Z,37.31
2018-04-06T05:55:51.334Z,35.21
2018-04-06T05:58:18.775Z,33.86
2018-04-06T06:00:46.155Z,32.30
2018-04-06T06:03:13.551Z,31.10
2018-04-06T06:05:40.960Z,29.47
2018-04-06T06:08:08.355Z,28.73
2018-04-06T06:10:36.743Z,27.13
2018-04-06T06:13:04.138Z,26.44
2018-04-06T06:15:31.599Z,25.56
2018-04-06T06:17:58.997Z,24.81
2018-04-06T06:20:26.387Z,24.41
2018-04-06T06:22:53.783Z,23.00
2018-04-06T06:25:21.174Z,22.64
2018-04-06T06:27:48.570Z,21.57
2018-04-06T06:30:15.968Z,20.69
2018-04-06T06:32:43.385Z,20.80
2018-04-06T06:35:10.841Z,19.21
2018-04-06T06:37:38.231Z,19.41
2018-04-06T06:40:05.656Z,19.02
2018-04-06T06:42:33.102Z,18.80
2018-04-06T06:45:00.567Z,18.29
2018-04-06T06:47:28.018Z,18.40
2018-04-06T06:49:55.543Z,18.32
2018-04-06T06:52:23.037Z,18.00
2018-04-06T06:54:50.437Z,18.22
2018-04-06T06:57:17.827Z,18.03
2018-04-06T06:59:45.303Z,17.31
2018-04-06T07:02:13.114Z,16.81
2018-04-06T07:04:40.569Z,16.98
2018-04-06T07:07:08.027Z,16.90
2018-04-06T07:09:35.486Z,16.43
2018-04-06T07:12:02.874Z,16.68
2018-04-06T07:14:30.296Z,17.32
2018-04-06T07:16:57.682Z,17.74
2018-04-06T07:19:25.078Z,18.08
2018-04-06T07:21:52.467Z,17.80
2018-04-06T07:24:19.863Z,17.62
2018-04-06T07:26:48.186Z,18.57
2018-04-06T07:29:15.646Z,17.86
2018-04-06T07:31:43.043Z,18.83
2018-04-06T07:34:10.463Z,17.75
2018-04-06T07:36:37.854Z,17.41
2018-04-06T07:39:06.152Z,17.35
2018-04-06T07:41:33.547Z,17.95
2018-04-06T07:44:00.955Z,18.39
2018-04-06T07:46:28.464Z,18.60
2018-04-06T07:48:55.918Z,18.99
2018-04-06T07:51:23.302Z,18.33
2018-04-06T07:53:50.699Z,17.68
2018-04-06T07:56:18.086Z,19.04
2018-04-06T07:58:45.700Z,17.84
2018-04-06T08:01:13.194Z,18.31
2018-04-06T08:03:40.591Z,18.19
2018-04-06T08:06:07.982Z,17.87
2018-04-06T08:08:35.374Z,18.38
2018-04-06T08:11:02.770Z,18.08
2018-04-06T08:13:30.220Z,18.53
2018-04-06T08:15:57.582Z,18.13
2018-04-06T08:18:24.978Z,18.76
2018-04-06T08:20:52.364Z,20.64
2018-04-06T08:23:19.763Z,19.67
2018-04-06T08:25:47.150Z,21.54
2018-04-06T08:28:15.477Z,21.09
2018-04-06T08:30:42.941Z,21.62
2018-04-06T08:33:10.399Z,21.82
2018-04-06T08:35:37.869Z,23.17
2018-04-06T08:38:05.255Z,24.64
2018-04-06T08:40:32.662Z,27.02
2018-04-06T08:43:00.084Z,28.44
2018-04-06T08:45:27.575Z,27.55
2018-04-06T08:47:55.139Z,28.40
2018-04-06T08:50:22.518Z,26.68
2018-04-06T08:52:49.906Z,26.39
2018-04-06T08:55:17.415Z,28.45
2018-04-06T08:57:44.836Z,28.10
2018-04-06T09:00:12.238Z,29.87
2018-04-06T09:02:39.645Z,27.62
2018-04-06T09:05:07.046Z,28.46
2018-04-06T09:07:34.542Z,28.00
2018-04-06T09:10:01.947Z,28.71
2018-04-06T09:12:29.355Z,28.71
2018-04-06T09:14:56.779Z,30.26
2018-04-06T09:17:24.158Z,30.06
2018-04-06T09:19:51.566Z,29.60
2018-04-06T09:22:18.981Z,31.88
2018-04-06T09:24:46.373Z,30.55
2018-04-06T09:27:13.767Z,31.24
2018-04-06T09:29:41.167Z,36.67
2018-04-06T09:32:08.553Z,35.39
2018-04-06T09:34:35.954Z,35.22
2018-04-06T09:37:03.424Z,37.44
2018-04-06T09:39:30.826Z,33.01
2018-04-06T09:41:58.214Z,31.84
2018-04-06T09:44:25.607Z,33.30
2018-04-06T09:46:53.039Z,33.30
2018-04-06T09:49:20.434Z,32.17
2018-04-06T09:51:47.823Z,31.81
2018-04-06T09:54:15.221Z,31.17
2018-04-06T09:56:42.623Z,32.46
2018-04-06T09:59:10.075Z,30.74
2018-04-06T10:01:37.555Z,32.78
2018-04-06T10:04:04.999Z,34.16
2018-04-06T10:06:32.382Z,32.45
2018-04-06T10:08:59.787Z,31.60
2018-04-06T10:11:27.199Z,33.21
2018-04-06T10:13:54.621Z,33.52
2018-04-06T10:16:22.070Z,34.17
2018-04-06T10:18:49.479Z,33.20
2018-04-06T10:21:16.870Z,34.04
2018-04-06T10:23:44.259Z,33.09
2018-04-06T10:26:11.655Z,32.01
2018-04-06T10:28:39.121Z,32.71
2018-04-06T10:31:06.574Z,31.49
2018-04-06T10:33:34.066Z,34.84
2018-04-06T10:36:01.465Z,34.75
2018-04-06T10:38:28.845Z,36.65
2018-04-06T10:40:56.298Z,36.75
2018-04-06T10:43:23.700Z,37.29
2018-04-06T10:45:51.867Z,35.51
2018-04-06T10:48:19.326Z,34.45
2018-04-06T10:50:46.822Z,34.52
2018-04-06T10:53:14.206Z,35.11
2018-04-06T10:55:41.600Z,34.94
2018-04-06T10:58:09.066Z,35.16
2018-04-06T11:00:36.480Z,33.71
2018-04-06T11:03:03.875Z,33.34
2018-04-06T11:05:31.266Z,33.21
2018-04-06T11:07:58.678Z,36.65
2018-04-06T11:10:26.139Z,35.00
2018-04-06T11:12:53.518Z,34.48
2018-04-06T11:15:20.920Z,36.38
2018-04-06T11:17:48.302Z,37.11
2018-04-06T11:20:15.766Z,35.35
2018-04-06T11:22:43.235Z,35.29
2018-04-06T11:25:10.625Z,34.56
2018-04-06T11:27:38.043Z,38.06
2018-04-06T11:30:05.519Z,38.84
2018-04-06T11:32:32.902Z,37.38
2018-04-06T11:35:00.290Z,35.57
2018-04-06T11:37:27.683Z,35.20
2018-04-06T11:39:55.122Z,35.72
2018-04-06T11:42:22.503Z,38.41
2018-04-06T11:44:49.907Z,35.81
2018-04-06T11:47:17.335Z,37.73
2018-04-06T11:49:45.649Z,36.03
2018-04-06T11:52:13.034Z,36.36
2018-04-06T11:54:40.462Z,35.96
2018-04-06T11:57:07.838Z,37.06
2018-04-06T11:59:35.279Z,37.08
2018-04-06T12:02:02.671Z,34.90
2018-04-06T12:04:30.055Z,35.08
2018-04-06T12:06:57.446Z,36.21
2018-04-06T12:09:24.905Z,33.05
2018-04-06T12:11:52.358Z,34.71
2018-04-06T12:14:19.747Z,32.63
2018-04-06T12:16:47.148Z,34.18
2018-04-06T12:19:14.627Z,32.58
2018-04-06T12:21:42.015Z,32.04
2018-04-06T12:24:09.430Z,33.22
2018-04-06T12:26:36.821Z,32.08
2018-04-06T12:29:04.206Z,31.69
2018-04-06T12:31:31.611Z,31.63
2018-04-06T12:33:59.010Z,32.69
2018-04-06T12:36:26.394Z,33.67
2018-04-06T12:38:54.419Z,35.73
2018-04-06T12:41:21.817Z,36.30
2018-04-06T12:43:49.197Z,36.46
2018-04-06T12:46:16.595Z,32.88
2018-04-06T12:48:43.983Z,33.89
2018-04-06T12:51:11.375Z,32.00
2018-04-06T12:53:38.811Z,30.59
2018-04-06T12:56:06.200Z,29.84
2018-04-06T12:58:33.590Z,31.56
2018-04-06T13:01:01.000Z,31.23
2018-04-06T13:03:28.390Z,30.16
2018-04-06T13:05:55.782Z,34.05
2018-04-06T13:08:23.171Z,31.55
2018-04-06T13:10:50.659Z,32.79
2018-04-06T13:13:18.323Z,31.07
2018-04-06T13:15:45.774Z,32.44
2018-04-06T13:18:13.250Z,32.04
2018-04-06T13:20:40.630Z,32.74
2018-04-06T13:23:08.038Z,29.65
2018-04-06T13:25:35.438Z,30.42
2018-04-06T13:28:02.823Z,30.12
2018-04-06T13:30:30.215Z,30.28
2018-04-06T13:32:57.667Z,30.90
2018-04-06T13:35:25.107Z,29.88
2018-04-06T13:37:52.495Z,31.09
2018-04-06T13:40:19.908Z,31.89
2018-04-06T13:42:47.314Z,32.14
2018-04-06T13:45:14.702Z,31.92
2018-04-06T13:47:42.094Z,32.69
2018-04-06T13:50:09.565Z,33.98
2018-04-06T13:52:36.963Z,32.21
2018-04-06T13:55:04.383Z,29.13
2018-04-06T13:57:31.847Z,32.43
2018-04-06T13:59:59.229Z,32.85
2018-04-06T14:02:26.654Z,32.59
2018-04-06T14:04:54.110Z,33.63
2018-04-06T14:07:21.564Z,32.63
2018-04-06T14:09:48.943Z,31.33
2018-04-06T14:12:16.379Z,31.21
2018-04-06T14:14:43.834Z,30.42
2018-04-06T14:17:11.230Z,30.76
2018-04-06T14:19:38.622Z,30.89
2018-04-06T14:22:06.007Z,31.43
2018-04-06T14:24:33.396Z,31.89
2018-04-06T14:27:00.806Z,30.78
2018-04-06T14:29:28.198Z,29.73
2018-04-06T14:31:55.595Z,30.11
2018-04-06T14:34:22.978Z,30.43
2018-04-06T14:36:50.366Z,28.77
2018-04-06T14:39:17.804Z,27.85
2018-04-06T14:41:45.222Z,29.91
2018-04-06T14:44:12.611Z,28.18
2018-04-06T14:46:40.063Z,28.12
2018-04-06T14:49:07.458Z,28.86
2018-04-06T14:51:34.852Z,27.13
2018-04-06T14:54:02.302Z,30.64
2018-04-06T14:56:29.766Z,29.27
2018-04-06T14:58:57.158Z,29.91
2018-04-06T15:01:24.584Z,30.75
2018-04-06T15:03:51.983Z,30.99
2018-04-06T15:06:19.378Z,29.04
2018-04-06T15:08:46.758Z,29.51
2018-04-06T15:11:14.156Z,29.80
2018-04-06T15:13:41.540Z,30.10
2018-04-06T15:16:09.011Z,29.42
2018-04-06T15:18:36.479Z,29.53
2018-04-06T15:21:03.863Z,31.54
2018-04-06T15:23:31.282Z,30.86
2018-04-06T15:25:58.678Z,30.17
2018-04-06T15:28:26.067Z,29.11
2018-04-06T15:30:53.553Z,29.20
2018-04-06T15:33:20.932Z,28.98
2018-04-06T15:35:48.341Z,27.82
2018-04-06T15:38:15.715Z,27.86
2018-04-06T15:40:43.110Z,27.86
2018-04-06T15:43:10.531Z,28.13
2018-04-06T15:45:37.939Z,28.32
2018-04-06T15:48:05.344Z,28.57
2018-04-06T15:50:32.731Z,26.97
2018-04-06T15:53:00.122Z,27.56
2018-04-06T15:55:27.616Z,26.79
2018-04-06T15:57:55.006Z,26.40
2018-04-06T16:00:22.399Z,25.45
2018-04-06T16:02:49.796Z,25.65
2018-04-06T16:05:17.200Z,26.26
2018-04-06T16:07:44.595Z,26.89
2018-04-06T16:10:12.092Z,27.44
2018-04-06T16:12:39.478Z,28.07
2018-04-06T16:15:06.863Z,28.19
2018-04-06T16:17:34.253Z,28.25
2018-04-06T16:20:01.634Z,29.06
2018-04-06T16:22:29.037Z,29.11
2018-04-06T16:24:56.427Z,29.04
2018-04-06T16:27:23.825Z,29.70
2018-04-06T16:29:51.210Z,30.57
2018-04-06T16:32:18.603Z,30.63
2018-04-06T16:34:45.988Z,30.90
2018-04-06T16:37:13.374Z,31.59
2018-04-06T16:39:40.770Z,32.93
2018-04-06T16:42:08.196Z,33.09
2018-04-06T16:44:35.591Z,33.95
2018-04-06T16:47:02.983Z,33.49
2018-04-06T16:49:30.402Z,33.69
2018-04-06T16:51:57.807Z,34.40
2018-04-06T16:54:25.279Z,33.38
2018-04-06T16:56:52.671Z,33.33
2018-04-06T16:59:20.063Z,34.02
2018-04-06T17:01:47.451Z,33.93
2018-04-06T17:04:14.910Z,33.13
2018-04-06T17:06:42.331Z,33.76
2018-04-06T17:09:09.719Z,33.03
2018-04-06T17:11:37.139Z,33.54
2018-04-06T17:14:04.519Z,33.18
2018-04-06T17:16:31.910Z,33.80
2018-04-06T17:18:59.333Z,34.14
2018-04-06T17:21:26.719Z,33.78
2018-04-06T17:23:54.113Z,33.89
2018-04-06T17:26:21.505Z,33.73
2018-04-06T17:28:48.897Z,34.31
2018-04-06T17:31:16.509Z,34.46
2018-04-06T17:33:43.913Z,34.00
2018-04-06T17:36:11.306Z,34.51
2018-04-06T17:38:38.860Z,34.42
2018-04-06T17:41:06.353Z,34.51
2018-04-06T17:43:33.771Z,34.92
2018-04-06T17:46:01.190Z,35.21
2018-04-06T17:48:28.606Z,34.94
2018-04-06T17:50:55.974Z,35.67
2018-04-06T17:53:23.398Z,35.74
2018-04-06T17:55:50.867Z,36.07
2018-04-06T17:58:18.315Z,36.25
2018-04-06T18:00:45.699Z,36.24
2018-04-06T18:03:13.094Z,36.92
2018-04-06T18:05:40.582Z,37.36
2018-04-06T18:08:08.043Z,38.17
2018-04-06T18:10:35.436Z,38.06
2018-04-06T18:13:02.848Z,38.65
2018-04-06T18:15:30.312Z,38.88
2018-04-06T18:17:57.833Z,38.89
2018-04-06T18:20:25.237Z,39.45
2018-04-06T18:22:52.626Z,39.79
2018-04-06T18:25:20.039Z,40.22
2018-04-06T18:27:47.435Z,40.76
2018-04-06T18:30:14.852Z,41.23
2018-04-06T18:32:42.243Z,41.46
2018-04-06T18:35:09.663Z,41.35
2018-04-06T18:37:37.055Z,41.86
2018-04-06T18:40:04.458Z,42.16
2018-04-06T18:42:31.858Z,42.13
2018-04-06T18:44:59.247Z,41.95
2018-04-06T18:47:26.670Z,42.44
2018-04-06T18:49:54.090Z,42.48
2018-04-06T18:52:21.668Z,42.64
2018-04-06T18:54:49.102Z,43.01
2018-04-06T18:57:16.515Z,42.64
2018-04-06T18:59:43.924Z,43.13
2018-04-06T19:02:11.380Z,42.96
2018-04-06T19:04:38.843Z,42.96
2018-04-06T19:07:06.287Z,43.11
2018-04-06T19:09:33.675Z,43.32
2018-04-06T19:12:01.065Z,43.68
2018-04-06T19:14:28.486Z,43.63
2018-04-06T19:16:55.887Z,44.05
2018-04-06T19:19:23.281Z,44.08
2018-04-06T19:21:50.678Z,44.46
2018-04-06T19:24:18.065Z,44.86
2018-04-06T19:26:45.675Z,44.73
2018-04-06T19:29:13.098Z,44.83
2018-04-06T19:31:40.506Z,44.95
2018-04-06T19:34:07.924Z,45.29
2018-04-06T19:36:35.383Z,45.84
2018-04-06T19:39:02.763Z,46.09
2018-04-06T19:41:30.147Z,46.35
2018-04-06T19:43:57.543Z,46.75
2018-04-06T19:46:24.935Z,47.03
2018-04-06T19:48:52.311Z,47.33
2018-04-06T19:51:19.707Z,47.34
2018-04-06T19:53:47.154Z,48.12
2018-04-06T19:56:14.544Z,47.98
2018-04-06T19:58:41.970Z,48.47
2018-04-06T20:01:09.419Z,48.66
2018-04-06T20:03:36.810Z,49.14
2018-04-06T20:06:04.218Z,49.50
2018-04-06T20:08:31.695Z,49.57
2018-04-06T20:10:59.075Z,49.59
2018-04-06T20:13:26.494Z,49.94
2018-04-06T20:15:53.950Z,50.31
2018-04-06T20:18:21.349Z,50.88
2018-04-06T20:20:48.755Z,50.69
2018-04-06T20:23:16.219Z,50.83
2018-04-06T20:25:43.604Z,51.02
2018-04-06T20:28:10.994Z,51.30
2018-04-06T20:30:38.485Z,51.57
2018-04-06T20:33:05.878Z,52.09
2018-04-06T20:35:33.291Z,52.14
2018-04-06T20:38:00.683Z,52.24
2018-04-06T20:40:28.073Z,52.31
2018-04-06T20:42:55.558Z,52.43
2018-04-06T20:45:23.037Z,52.26
2018-04-06T20:47:50.417Z,52.61
2018-04-06T20:50:17.831Z,52.68
2018-04-06T20:52:45.219Z,52.48
2018-04-06T20:55:12.610Z,52.08
2018-04-06T20:57:40.007Z,51.95
2018-04-06T21:00:07.455Z,52.36
2018-04-06T21:02:34.861Z,52.31
2018-04-06T21:05:02.244Z,52.19
2018-04-06T21:07:29.715Z,52.10
2018-04-06T21:09:57.174Z,52.18
2018-04-06T21:12:24.566Z,51.96
2018-04-06T21:14:52.731Z,51.91
2018-04-06T21:17:20.124Z,51.73
2018-04-06T21:19:48.433Z,51.35
2018-04-06T21:22:15.831Z,51.26
2018-04-06T21:24:43.246Z,51.01
2018-04-06T21:27:10.643Z,51.68
2018-04-06T21:29:38.026Z,51.37
2018-04-06T21:32:05.418Z,51.47
2018-04-06T21:34:32.805Z,51.46
2018-04-06T21:37:00.226Z,51.52
2018-04-06T21:39:27.606Z,52.07
2018-04-06T21:41:54.999Z,51.54
2018-04-06T21:44:22.392Z,51.53
2018-04-06T21:46:49.843Z,51.51
2018-04-06T21:49:17.231Z,51.51
2018-04-06T21:51:44.619Z,51.47
2018-04-06T21:54:12.114Z,51.47
2018-04-06T21:56:39.503Z,51.65
2018-04-06T21:59:06.890Z,51.79
2018-04-06T22:01:34.379Z,51.75
2018-04-06T22:04:01.835Z,51.72
2018-04-06T22:06:29.219Z,51.46
2018-04-06T22:08:56.647Z,51.45
2018-04-06T22:11:24.094Z,51.39
2018-04-06T22:13:51.490Z,51.27
2018-04-06T22:16:18.875Z,51.26
2018-04-06T22:18:46.363Z,51.26
2018-04-06T22:21:13.831Z,51.15
2018-04-06T22:23:41.232Z,51.02
2018-04-06T22:26:08.607Z,51.42
2018-04-06T22:28:36.005Z,51.37
2018-04-06T22:31:03.446Z,51.20
2018-04-06T22:33:30.902Z,51.46
2018-04-06T22:35:58.277Z,51.56
2018-04-06T22:38:25.679Z,51.76
2018-04-06T22:40:53.051Z,51.56
2018-04-06T22:43:20.443Z,51.85
2018-04-06T22:45:47.879Z,51.84
2018-04-06T22:48:15.275Z,52.55
2018-04-06T22:50:42.691Z,52.18
2018-04-06T22:53:10.148Z,52.41
2018-04-06T22:55:37.526Z,52.70
2018-04-06T22:58:04.935Z,52.58
2018-04-06T23:00:32.322Z,52.72
2018-04-06T23:02:59.762Z,52.80
2018-04-06T23:05:27.141Z,52.66
2018-04-06T23:07:54.531Z,52.42
2018-04-06T23:10:21.918Z,52.33
2018-04-06T23:12:49.382Z,51.89
2018-04-06T23:15:16.776Z,51.65
2018-04-06T23:17:44.169Z,51.18
2018-04-06T23:20:11.551Z,50.72
2018-04-06T23:22:38.938Z,50.73
2018-04-06T23:25:07.182Z,50.61
2018-04-06T23:27:34.567Z,50.69
2018-04-06T23:30:01.955Z,49.86
2018-04-06T23:32:29.335Z,49.67
2018-04-06T23:34:56.725Z,49.25
2018-04-06T23:37:24.109Z,49.25
2018-04-06T23:39:51.510Z,48.84
2018-04-06T23:42:18.894Z,48.66
2018-04-06T23:44:46.289Z,48.47
2018-04-06T23:47:13.799Z,47.99
2018-04-06T23:49:41.186Z,47.93
2018-04-06T23:52:08.587Z,47.24
2018-04-06T23:54:35.981Z,47.57
2018-04-06T23:57:03.363Z,47.70
2018-04-06T23:59:30.756Z,47.88
